sensor_id;sensor_type;location;lat;lon;timestamp;pressure;altitude;pressure_sealevel;temperature;humidity
36972;BME280;40554;52.122;20.678;2022-12-31T00:02:02;100385.30;;;3.17;100.00
36972;BME280;40554;52.122;20.678;2022-12-31T00:04:18;100384.83;;;3.17;100.00
36972;BME280;40554;52.122;20.678;2022-12-31T00:06:35;100387.45;;;3.17;100.00
36972;BME280;40554;52.122;20.678;2022-12-31T00:08:53;100386.14;;;3.17;100.00
36972;BME280;40554;52.122;20.678;2022-12-31T00:11:10;100382.67;;;3.17;100.00
36972;BME280;40554;52.122;20.678;2022-12-31T00:13:27;100380.01;;;3.18;100.00
36972;BME280;40554;52.122;20.678;2022-12-31T00:15:43;100371.73;;;3.17;100.00
36972;BME280;40554;52.122;20.678;2022-12-31T00:18:00;100363.44;;;3.18;100.00
36972;BME280;40554;52.122;20.678;2022-12-31T00:20:16;100362.52;;;3.19;100.00
36972;BME280;40554;52.122;20.678;2022-12-31T00:22:33;100364.67;;;3.19;100.00
36972;BME280;40554;52.122;20.678;2022-12-31T00:24:49;100359.81;;;3.20;100.00
36972;BME280;40554;52.122;20.678;2022-12-31T00:27:05;100355.88;;;3.20;100.00
36972;BME280;40554;52.122;20.678;2022-12-31T00:29:22;100366.78;;;3.21;100.00
36972;BME280;40554;52.122;20.678;2022-12-31T00:31:38;100362.86;;;3.21;100.00
36972;BME280;40554;52.122;20.678;2022-12-31T00:33:55;100362.01;;;3.21;100.00
36972;BME280;40554;52.122;20.678;2022-12-31T00:36:14;100361.55;;;3.21;100.00
36972;BME280;40554;52.122;20.678;2022-12-31T00:38:46;100351.06;;;3.21;100.00
36972;BME280;40554;52.122;20.678;2022-12-31T00:41:04;100349.75;;;3.21;100.00
36972;BME280;40554;52.122;20.678;2022-12-31T00:43:21;100346.67;;;3.22;100.00
36972;BME280;40554;52.122;20.678;2022-12-31T00:45:37;100349.24;;;3.23;100.00
36972;BME280;40554;52.122;20.678;2022-12-31T00:47:53;100343.08;;;3.24;100.00
36972;BME280;40554;52.122;20.678;2022-12-31T00:50:10;100332.47;;;3.27;100.00
36972;BME280;40554;52.122;20.678;2022-12-31T00:52:26;100337.59;;;3.30;100.00
36972;BME280;40554;52.122;20.678;2022-12-31T00:54:42;100337.88;;;3.35;100.00
36972;BME280;40554;52.122;20.678;2022-12-31T00:56:59;100332.00;;;3.40;100.00
36972;BME280;40554;52.122;20.678;2022-12-31T00:59:15;100323.81;;;3.47;100.00
36972;BME280;40554;52.122;20.678;2022-12-31T01:01:35;100319.06;;;3.57;100.00
36972;BME280;40554;52.122;20.678;2022-12-31T01:03:57;100313.98;;;3.64;100.00
36972;BME280;40554;52.122;20.678;2022-12-31T01:06:16;100320.66;;;3.71;100.00
36972;BME280;40554;52.122;20.678;2022-12-31T01:08:33;100317.80;;;3.77;100.00
36972;BME280;40554;52.122;20.678;2022-12-31T01:10:49;100313.02;;;3.87;100.00
36972;BME280;40554;52.122;20.678;2022-12-31T01:13:24;100303.13;;;3.94;100.00
36972;BME280;40554;52.122;20.678;2022-12-31T01:15:40;100306.15;;;4.05;100.00
36972;BME280;40554;52.122;20.678;2022-12-31T01:17:57;100301.94;;;4.11;100.00
36972;BME280;40554;52.122;20.678;2022-12-31T01:20:13;100297.87;;;4.14;100.00
36972;BME280;40554;52.122;20.678;2022-12-31T01:22:30;100299.45;;;4.18;100.00
36972;BME280;40554;52.122;20.678;2022-12-31T01:24:46;100300.55;;;4.23;100.00
36972;BME280;40554;52.122;20.678;2022-12-31T01:27:02;100305.47;;;4.31;100.00
36972;BME280;40554;52.122;20.678;2022-12-31T01:29:18;100297.02;;;4.34;100.00
36972;BME280;40554;52.122;20.678;2022-12-31T01:31:36;100287.23;;;4.38;100.00
36972;BME280;40554;52.122;20.678;2022-12-31T01:33:52;100289.19;;;4.43;100.00
36972;BME280;40554;52.122;20.678;2022-12-31T01:36:12;100287.22;;;4.48;100.00
36972;BME280;40554;52.122;20.678;2022-12-31T01:38:31;100278.20;;;4.54;100.00
36972;BME280;40554;52.122;20.678;2022-12-31T01:40:48;100273.61;;;4.59;100.00
36972;BME280;40554;52.122;20.678;2022-12-31T01:43:12;100285.98;;;4.65;100.00
36972;BME280;40554;52.122;20.678;2022-12-31T01:45:32;100281.91;;;4.69;100.00
36972;BME280;40554;52.122;20.678;2022-12-31T01:47:54;100279.55;;;4.73;100.00
36972;BME280;40554;52.122;20.678;2022-12-31T01:50:18;100280.19;;;4.78;100.00
36972;BME280;40554;52.122;20.678;2022-12-31T01:52:42;100272.02;;;4.84;100.00
36972;BME280;40554;52.122;20.678;2022-12-31T01:55:04;100265.67;;;4.88;100.00
36972;BME280;40554;52.122;20.678;2022-12-31T01:57:23;100260.27;;;4.91;100.00
36972;BME280;40554;52.122;20.678;2022-12-31T01:59:41;100257.59;;;4.93;100.00
36972;BME280;40554;52.122;20.678;2022-12-31T02:01:59;100250.55;;;4.93;100.00
36972;BME280;40554;52.122;20.678;2022-12-31T02:04:16;100244.30;;;4.96;100.00
36972;BME280;40554;52.122;20.678;2022-12-31T02:06:36;100239.13;;;4.94;100.00
36972;BME280;40554;52.122;20.678;2022-12-31T02:08:57;100234.26;;;4.95;100.00
36972;BME280;40554;52.122;20.678;2022-12-31T02:11:26;100243.83;;;4.96;100.00
36972;BME280;40554;52.122;20.678;2022-12-31T02:13:40;100246.46;;;4.96;100.00
36972;BME280;40554;52.122;20.678;2022-12-31T02:16:09;100246.31;;;4.99;100.00
36972;BME280;40554;52.122;20.678;2022-12-31T02:18:41;100230.95;;;5.00;100.00
36972;BME280;40554;52.122;20.678;2022-12-31T02:35:21;100205.00;;;5.11;100.00
36972;BME280;40554;52.122;20.678;2022-12-31T02:37:47;100194.02;;;5.12;100.00
36972;BME280;40554;52.122;20.678;2022-12-31T02:40:08;100200.12;;;5.13;100.00
36972;BME280;40554;52.122;20.678;2022-12-31T02:42:26;100213.20;;;5.14;100.00
36972;BME280;40554;52.122;20.678;2022-12-31T02:44:42;100211.80;;;5.16;100.00
36972;BME280;40554;52.122;20.678;2022-12-31T02:50:12;100216.78;;;5.22;100.00
36972;BME280;40554;52.122;20.678;2022-12-31T02:58:09;100210.74;;;5.37;100.00
36972;BME280;40554;52.122;20.678;2022-12-31T03:00:50;100202.58;;;5.43;100.00
36972;BME280;40554;52.122;20.678;2022-12-31T03:03:26;100214.09;;;5.49;100.00
36972;BME280;40554;52.122;20.678;2022-12-31T03:05:43;100217.72;;;5.55;100.00
36972;BME280;40554;52.122;20.678;2022-12-31T03:08:00;100215.34;;;5.60;100.00
36972;BME280;40554;52.122;20.678;2022-12-31T03:10:17;100214.71;;;5.63;100.00
36972;BME280;40554;52.122;20.678;2022-12-31T03:12:34;100207.44;;;5.68;100.00
36972;BME280;40554;52.122;20.678;2022-12-31T03:15:04;100205.49;;;5.72;100.00
36972;BME280;40554;52.122;20.678;2022-12-31T03:17:21;100221.05;;;5.76;100.00
36972;BME280;40554;52.122;20.678;2022-12-31T03:19:37;100223.16;;;5.78;100.00
36972;BME280;40554;52.122;20.678;2022-12-31T03:22:12;100208.83;;;5.84;100.00
36972;BME280;40554;52.122;20.678;2022-12-31T03:24:43;100218.25;;;5.88;100.00
36972;BME280;40554;52.122;20.678;2022-12-31T03:27:17;100218.09;;;5.91;100.00
36972;BME280;40554;52.122;20.678;2022-12-31T03:29:34;100217.58;;;5.93;100.00
36972;BME280;40554;52.122;20.678;2022-12-31T03:31:50;100230.58;;;5.96;100.00
36972;BME280;40554;52.122;20.678;2022-12-31T03:34:06;100225.72;;;5.97;100.00
36972;BME280;40554;52.122;20.678;2022-12-31T03:36:23;100236.63;;;5.98;100.00
36972;BME280;40554;52.122;20.678;2022-12-31T03:38:40;100219.89;;;5.99;100.00
36972;BME280;40554;52.122;20.678;2022-12-31T03:40:56;100226.87;;;6.01;100.00
36972;BME280;40554;52.122;20.678;2022-12-31T03:43:13;100236.46;;;6.02;100.00
36972;BME280;40554;52.122;20.678;2022-12-31T03:45:31;100229.81;;;6.03;100.00
36972;BME280;40554;52.122;20.678;2022-12-31T03:47:49;100233.67;;;6.05;100.00
36972;BME280;40554;52.122;20.678;2022-12-31T03:50:09;100215.23;;;6.05;100.00
36972;BME280;40554;52.122;20.678;2022-12-31T03:52:27;100218.18;;;6.07;100.00
36972;BME280;40554;52.122;20.678;2022-12-31T03:54:43;100217.27;;;6.08;100.00
36972;BME280;40554;52.122;20.678;2022-12-31T03:56:59;100224.70;;;6.09;100.00
36972;BME280;40554;52.122;20.678;2022-12-31T03:59:16;100223.75;;;6.10;100.00
36972;BME280;40554;52.122;20.678;2022-12-31T04:01:32;100236.91;;;6.10;100.00
36972;BME280;40554;52.122;20.678;2022-12-31T04:03:48;100215.01;;;6.09;100.00
36972;BME280;40554;52.122;20.678;2022-12-31T04:06:05;100226.38;;;6.10;100.00
36972;BME280;40554;52.122;20.678;2022-12-31T04:08:22;100229.80;;;6.12;100.00
36972;BME280;40554;52.122;20.678;2022-12-31T04:10:39;100217.58;;;6.11;100.00
36972;BME280;40554;52.122;20.678;2022-12-31T04:12:55;100230.73;;;6.11;100.00
36972;BME280;40554;52.122;20.678;2022-12-31T04:15:18;100230.64;;;6.12;100.00
36972;BME280;40554;52.122;20.678;2022-12-31T04:17:36;100230.17;;;6.13;100.00
36972;BME280;40554;52.122;20.678;2022-12-31T04:19:52;100234.52;;;6.14;100.00
36972;BME280;40554;52.122;20.678;2022-12-31T04:22:08;100244.95;;;6.15;100.00
36972;BME280;40554;52.122;20.678;2022-12-31T04:24:25;100246.20;;;6.17;100.00
36972;BME280;40554;52.122;20.678;2022-12-31T04:26:41;100240.00;;;6.18;100.00
36972;BME280;40554;52.122;20.678;2022-12-31T04:28:58;100232.03;;;6.19;100.00
36972;BME280;40554;52.122;20.678;2022-12-31T04:31:15;100226.30;;;6.20;100.00
36972;BME280;40554;52.122;20.678;2022-12-31T04:33:31;100221.03;;;6.20;100.00
36972;BME280;40554;52.122;20.678;2022-12-31T04:35:47;100217.92;;;6.20;100.00
36972;BME280;40554;52.122;20.678;2022-12-31T04:38:03;100214.75;;;6.23;100.00
36972;BME280;40554;52.122;20.678;2022-12-31T04:40:20;100214.66;;;6.24;100.00
36972;BME280;40554;52.122;20.678;2022-12-31T04:42:36;100227.28;;;6.26;100.00
36972;BME280;40554;52.122;20.678;2022-12-31T04:44:53;100224.64;;;6.26;100.00
36972;BME280;40554;52.122;20.678;2022-12-31T04:47:09;100219.85;;;6.26;100.00
36972;BME280;40554;52.122;20.678;2022-12-31T04:49:26;100214.05;;;6.28;100.00
36972;BME280;40554;52.122;20.678;2022-12-31T04:51:42;100218.77;;;6.30;100.00
36972;BME280;40554;52.122;20.678;2022-12-31T04:53:59;100221.84;;;6.29;100.00
36972;BME280;40554;52.122;20.678;2022-12-31T04:56:16;100225.25;;;6.31;100.00
36972;BME280;40554;52.122;20.678;2022-12-31T04:58:33;100230.89;;;6.32;100.00
36972;BME280;40554;52.122;20.678;2022-12-31T05:00:50;100229.04;;;6.34;100.00
36972;BME280;40554;52.122;20.678;2022-12-31T05:03:08;100235.45;;;6.37;100.00
36972;BME280;40554;52.122;20.678;2022-12-31T05:05:25;100232.28;;;6.39;100.00
36972;BME280;40554;52.122;20.678;2022-12-31T05:07:41;100232.21;;;6.41;100.00
36972;BME280;40554;52.122;20.678;2022-12-31T05:09:57;100233.83;;;6.43;100.00
36972;BME280;40554;52.122;20.678;2022-12-31T05:12:14;100228.47;;;6.45;100.00
36972;BME280;40554;52.122;20.678;2022-12-31T05:14:30;100226.14;;;6.48;100.00
36972;BME280;40554;52.122;20.678;2022-12-31T05:16:47;100231.23;;;6.51;100.00
36972;BME280;40554;52.122;20.678;2022-12-31T05:19:03;100236.33;;;6.54;100.00
36972;BME280;40554;52.122;20.678;2022-12-31T05:21:21;100237.52;;;6.57;100.00
36972;BME280;40554;52.122;20.678;2022-12-31T05:23:37;100228.50;;;6.61;100.00
36972;BME280;40554;52.122;20.678;2022-12-31T05:25:54;100230.48;;;6.64;100.00
36972;BME280;40554;52.122;20.678;2022-12-31T05:28:10;100233.72;;;6.70;100.00
36972;BME280;40554;52.122;20.678;2022-12-31T05:30:27;100247.98;;;6.74;100.00
36972;BME280;40554;52.122;20.678;2022-12-31T05:32:44;100246.41;;;6.79;100.00
36972;BME280;40554;52.122;20.678;2022-12-31T05:35:00;100238.23;;;6.83;100.00
36972;BME280;40554;52.122;20.678;2022-12-31T05:37:17;100237.15;;;6.87;100.00
36972;BME280;40554;52.122;20.678;2022-12-31T05:39:33;100230.75;;;6.92;100.00
36972;BME280;40554;52.122;20.678;2022-12-31T05:41:50;100230.20;;;6.94;100.00
36972;BME280;40554;52.122;20.678;2022-12-31T05:44:06;100228.72;;;6.97;100.00
36972;BME280;40554;52.122;20.678;2022-12-31T05:46:22;100223.37;;;6.98;100.00
36972;BME280;40554;52.122;20.678;2022-12-31T05:48:39;100225.05;;;6.99;100.00
36972;BME280;40554;52.122;20.678;2022-12-31T05:50:55;100211.80;;;7.01;100.00
36972;BME280;40554;52.122;20.678;2022-12-31T05:53:13;100214.81;;;7.02;100.00
36972;BME280;40554;52.122;20.678;2022-12-31T05:55:30;100213.86;;;7.03;100.00
36972;BME280;40554;52.122;20.678;2022-12-31T05:57:46;100205.80;;;7.06;100.00
36972;BME280;40554;52.122;20.678;2022-12-31T06:00:05;100216.42;;;7.04;100.00
36972;BME280;40554;52.122;20.678;2022-12-31T06:02:22;100216.91;;;7.04;100.00
36972;BME280;40554;52.122;20.678;2022-12-31T06:04:39;100215.58;;;7.04;100.00
36972;BME280;40554;52.122;20.678;2022-12-31T06:06:55;100220.86;;;7.04;100.00
36972;BME280;40554;52.122;20.678;2022-12-31T06:09:13;100213.48;;;7.02;100.00
36972;BME280;40554;52.122;20.678;2022-12-31T06:11:30;100209.17;;;7.01;100.00
36972;BME280;40554;52.122;20.678;2022-12-31T06:13:46;100214.98;;;6.99;100.00
36972;BME280;40554;52.122;20.678;2022-12-31T06:16:06;100215.63;;;6.95;100.00
36972;BME280;40554;52.122;20.678;2022-12-31T06:18:24;100218.72;;;6.95;100.00
36972;BME280;40554;52.122;20.678;2022-12-31T06:20:40;100215.34;;;6.93;100.00
36972;BME280;40554;52.122;20.678;2022-12-31T06:22:56;100215.34;;;6.93;100.00
36972;BME280;40554;52.122;20.678;2022-12-31T06:25:12;100227.67;;;6.92;100.00
36972;BME280;40554;52.122;20.678;2022-12-31T06:27:29;100227.20;;;6.93;100.00
36972;BME280;40554;52.122;20.678;2022-12-31T06:29:45;100228.89;;;6.94;100.00
36972;BME280;40554;52.122;20.678;2022-12-31T06:32:02;100223.62;;;6.94;100.00
36972;BME280;40554;52.122;20.678;2022-12-31T06:34:19;100236.25;;;6.96;100.00
36972;BME280;40554;52.122;20.678;2022-12-31T06:36:35;100235.70;;;6.98;100.00
36972;BME280;40554;52.122;20.678;2022-12-31T06:38:52;100233.81;;;7.00;100.00
36972;BME280;40554;52.122;20.678;2022-12-31T06:41:11;100237.22;;;7.02;100.00
36972;BME280;40554;52.122;20.678;2022-12-31T06:43:28;100238.84;;;7.04;100.00
36972;BME280;40554;52.122;20.678;2022-12-31T06:45:45;100235.66;;;7.06;100.00
36972;BME280;40554;52.122;20.678;2022-12-31T06:48:01;100238.59;;;7.09;100.00
36972;BME280;40554;52.122;20.678;2022-12-31T06:50:17;100231.52;;;7.09;100.00
36972;BME280;40554;52.122;20.678;2022-12-31T06:52:34;100239.73;;;7.12;100.00
36972;BME280;40554;52.122;20.678;2022-12-31T06:54:51;100229.08;;;7.14;100.00
36972;BME280;40554;52.122;20.678;2022-12-31T06:57:08;100242.19;;;7.15;100.00
36972;BME280;40554;52.122;20.678;2022-12-31T06:59:27;100246.92;;;7.17;100.00
36972;BME280;40554;52.122;20.678;2022-12-31T07:01:54;100245.97;;;7.18;100.00
36972;BME280;40554;52.122;20.678;2022-12-31T07:09:30;100252.61;;;7.25;100.00
36972;BME280;40554;52.122;20.678;2022-12-31T07:11:59;100254.70;;;7.27;100.00
36972;BME280;40554;52.122;20.678;2022-12-31T07:14:51;100267.31;;;7.29;100.00
36972;BME280;40554;52.122;20.678;2022-12-31T07:20:10;100267.91;;;7.35;100.00
36972;BME280;40554;52.122;20.678;2022-12-31T07:22:28;100276.59;;;7.37;100.00
36972;BME280;40554;52.122;20.678;2022-12-31T07:24:45;100274.72;;;7.39;100.00
36972;BME280;40554;52.122;20.678;2022-12-31T07:27:16;100275.46;;;7.41;100.00
36972;BME280;40554;52.122;20.678;2022-12-31T07:30:34;100283.30;;;7.42;100.00
36972;BME280;40554;52.122;20.678;2022-12-31T07:43:31;100289.59;;;7.55;100.00
36972;BME280;40554;52.122;20.678;2022-12-31T07:48:55;100282.45;;;7.65;100.00
36972;BME280;40554;52.122;20.678;2022-12-31T07:51:13;100283.51;;;7.69;100.00
36972;BME280;40554;52.122;20.678;2022-12-31T07:53:30;100275.77;;;7.73;100.00
36972;BME280;40554;52.122;20.678;2022-12-31T07:55:51;100275.52;;;7.78;100.00
36972;BME280;40554;52.122;20.678;2022-12-31T07:58:21;100275.26;;;7.83;100.00
36972;BME280;40554;52.122;20.678;2022-12-31T08:00:38;100288.56;;;7.88;100.00
36972;BME280;40554;52.122;20.678;2022-12-31T08:05:48;100281.52;;;7.96;100.00
36972;BME280;40554;52.122;20.678;2022-12-31T08:13:11;100288.41;;;8.06;100.00
36972;BME280;40554;52.122;20.678;2022-12-31T08:15:29;100291.73;;;8.09;100.00
36972;BME280;40554;52.122;20.678;2022-12-31T08:17:45;100297.68;;;8.13;100.00
36972;BME280;40554;52.122;20.678;2022-12-31T08:20:03;100298.34;;;8.16;100.00
36972;BME280;40554;52.122;20.678;2022-12-31T08:41:27;100318.63;;;8.53;100.00
36972;BME280;40554;52.122;20.678;2022-12-31T08:49:29;100324.69;;;8.77;100.00
36972;BME280;40554;52.122;20.678;2022-12-31T08:51:42;100328.44;;;8.87;100.00
36972;BME280;40554;52.122;20.678;2022-12-31T08:53:59;100316.91;;;8.95;100.00
36972;BME280;40554;52.122;20.678;2022-12-31T09:02:26;100307.05;;;9.12;100.00
36972;BME280;40554;52.122;20.678;2022-12-31T09:04:52;100303.45;;;9.20;100.00
36972;BME280;40554;52.122;20.678;2022-12-31T09:07:19;100296.47;;;9.26;100.00
36972;BME280;40554;52.122;20.678;2022-12-31T09:10:01;100306.28;;;9.31;100.00
36972;BME280;40554;52.122;20.678;2022-12-31T09:15:42;100300.59;;;9.37;100.00
36972;BME280;40554;52.122;20.678;2022-12-31T09:18:04;100288.56;;;9.39;100.00
36972;BME280;40554;52.122;20.678;2022-12-31T09:20:28;100286.03;;;9.37;100.00
36972;BME280;40554;52.122;20.678;2022-12-31T09:22:46;100283.27;;;9.39;100.00
36972;BME280;40554;52.122;20.678;2022-12-31T09:25:02;100283.66;;;9.40;100.00
36972;BME280;40554;52.122;20.678;2022-12-31T09:28:17;100293.65;;;9.42;100.00
36972;BME280;40554;52.122;20.678;2022-12-31T09:30:10;100300.55;;;9.44;100.00
36972;BME280;40554;52.122;20.678;2022-12-31T09:32:39;100286.66;;;9.48;100.00
36972;BME280;40554;52.122;20.678;2022-12-31T09:54:59;100249.78;;;9.72;100.00
36972;BME280;40554;52.122;20.678;2022-12-31T09:57:24;100241.98;;;9.76;100.00
36972;BME280;40554;52.122;20.678;2022-12-31T10:00:19;100253.87;;;9.83;100.00
36972;BME280;40554;52.122;20.678;2022-12-31T10:08:01;100228.94;;;10.06;100.00
36972;BME280;40554;52.122;20.678;2022-12-31T10:10:51;100233.14;;;10.15;100.00
36972;BME280;40554;52.122;20.678;2022-12-31T10:13:23;100243.58;;;10.24;100.00
36972;BME280;40554;52.122;20.678;2022-12-31T10:18:51;100247.51;;;10.31;100.00
36972;BME280;40554;52.122;20.678;2022-12-31T10:32:11;100232.34;;;10.59;100.00
36972;BME280;40554;52.122;20.678;2022-12-31T11:19:37;100173.02;;;11.56;100.00
36972;BME280;40554;52.122;20.678;2022-12-31T11:25:02;100165.79;;;11.58;100.00
36972;BME280;40554;52.122;20.678;2022-12-31T11:41:45;100152.09;;;11.75;100.00
36972;BME280;40554;52.122;20.678;2022-12-31T11:58:19;100129.31;;;12.01;100.00
36972;BME280;40554;52.122;20.678;2022-12-31T12:00:36;100126.89;;;11.98;100.00
36972;BME280;40554;52.122;20.678;2022-12-31T12:03:00;100142.48;;;11.97;100.00
36972;BME280;40554;52.122;20.678;2022-12-31T12:05:19;100152.37;;;11.95;100.00
36972;BME280;40554;52.122;20.678;2022-12-31T12:07:37;100155.28;;;11.97;100.00
36972;BME280;40554;52.122;20.678;2022-12-31T12:09:54;100153.33;;;12.00;100.00
36972;BME280;40554;52.122;20.678;2022-12-31T12:12:13;100149.83;;;11.99;100.00
36972;BME280;40554;52.122;20.678;2022-12-31T12:14:39;100145.84;;;11.99;100.00
36972;BME280;40554;52.122;20.678;2022-12-31T12:17:00;100146.69;;;12.00;100.00
36972;BME280;40554;52.122;20.678;2022-12-31T12:19:18;100139.45;;;11.96;100.00
36972;BME280;40554;52.122;20.678;2022-12-31T12:21:43;100140.04;;;11.94;100.00
36972;BME280;40554;52.122;20.678;2022-12-31T12:24:04;100137.14;;;11.91;100.00
36972;BME280;40554;52.122;20.678;2022-12-31T12:26:34;100132.69;;;11.86;100.00
36972;BME280;40554;52.122;20.678;2022-12-31T12:28:52;100133.84;;;11.82;100.00
36972;BME280;40554;52.122;20.678;2022-12-31T12:31:22;100131.67;;;11.82;100.00
36972;BME280;40554;52.122;20.678;2022-12-31T12:33:43;100118.98;;;11.80;100.00
36972;BME280;40554;52.122;20.678;2022-12-31T12:36:08;100120.91;;;11.78;100.00
36972;BME280;40554;52.122;20.678;2022-12-31T12:38:26;100120.91;;;11.78;100.00
36972;BME280;40554;52.122;20.678;2022-12-31T12:40:58;100126.22;;;11.78;100.00
36972;BME280;40554;52.122;20.678;2022-12-31T12:43:22;100118.74;;;11.77;100.00
36972;BME280;40554;52.122;20.678;2022-12-31T12:45:45;100112.69;;;11.75;100.00
36972;BME280;40554;52.122;20.678;2022-12-31T12:48:07;100117.66;;;11.74;100.00
36972;BME280;40554;52.122;20.678;2022-12-31T12:50:25;100110.03;;;11.69;100.00
36972;BME280;40554;52.122;20.678;2022-12-31T12:58:19;100112.09;;;11.66;100.00
36972;BME280;40554;52.122;20.678;2022-12-31T13:01:07;100112.19;;;11.64;100.00
36972;BME280;40554;52.122;20.678;2022-12-31T13:06:39;100103.88;;;11.63;100.00
36972;BME280;40554;52.122;20.678;2022-12-31T13:12:10;100100.48;;;11.61;100.00
36972;BME280;40554;52.122;20.678;2022-12-31T13:14:43;100104.95;;;11.61;100.00
36972;BME280;40554;52.122;20.678;2022-12-31T13:19:49;100101.70;;;11.57;100.00
36972;BME280;40554;52.122;20.678;2022-12-31T13:22:36;100103.03;;;11.57;100.00
36972;BME280;40554;52.122;20.678;2022-12-31T13:27:36;100102.05;;;11.58;100.00
36972;BME280;40554;52.122;20.678;2022-12-31T13:29:58;100101.56;;;11.59;100.00
36972;BME280;40554;52.122;20.678;2022-12-31T13:32:19;100103.27;;;11.60;100.00
36972;BME280;40554;52.122;20.678;2022-12-31T13:34:39;100104.47;;;11.61;100.00
36972;BME280;40554;52.122;20.678;2022-12-31T13:37:01;100106.05;;;11.64;100.00
36972;BME280;40554;52.122;20.678;2022-12-31T13:39:27;100102.06;;;11.64;100.00
36972;BME280;40554;52.122;20.678;2022-12-31T13:44:53;100103.05;;;11.68;100.00
36972;BME280;40554;52.122;20.678;2022-12-31T13:47:29;100107.38;;;11.69;100.00
36972;BME280;40554;52.122;20.678;2022-12-31T13:50:11;100108.11;;;11.71;100.00
36972;BME280;40554;52.122;20.678;2022-12-31T13:52:33;100115.98;;;11.73;100.00
36972;BME280;40554;52.122;20.678;2022-12-31T13:57:48;100119.23;;;11.76;100.00
36972;BME280;40554;52.122;20.678;2022-12-31T14:00:24;100120.80;;;11.79;100.00
36972;BME280;40554;52.122;20.678;2022-12-31T14:02:51;100113.67;;;11.80;100.00
36972;BME280;40554;52.122;20.678;2022-12-31T14:05:18;100117.17;;;11.80;100.00
36972;BME280;40554;52.122;20.678;2022-12-31T14:07:47;100112.34;;;11.80;100.00
36972;BME280;40554;52.122;20.678;2022-12-31T14:10:15;100125.04;;;11.82;100.00
36972;BME280;40554;52.122;20.678;2022-12-31T14:15:25;100112.48;;;11.84;100.00
36972;BME280;40554;52.122;20.678;2022-12-31T14:23:44;100130.63;;;11.90;100.00
36972;BME280;40554;52.122;20.678;2022-12-31T14:26:05;100131.47;;;11.90;100.00
36972;BME280;40554;52.122;20.678;2022-12-31T14:28:28;100134.02;;;11.92;100.00
36972;BME280;40554;52.122;20.678;2022-12-31T14:30:49;100134.02;;;11.97;100.00
36972;BME280;40554;52.122;20.678;2022-12-31T14:33:27;100132.56;;;11.99;100.00
36972;BME280;40554;52.122;20.678;2022-12-31T14:38:58;100128.71;;;12.03;100.00
36972;BME280;40554;52.122;20.678;2022-12-31T14:41:41;100131.72;;;12.04;100.00
36972;BME280;40554;52.122;20.678;2022-12-31T14:50:31;100137.77;;;12.06;100.00
36972;BME280;40554;52.122;20.678;2022-12-31T14:52:50;100136.44;;;12.06;100.00
36972;BME280;40554;52.122;20.678;2022-12-31T14:55:19;100129.80;;;12.06;100.00
36972;BME280;40554;52.122;20.678;2022-12-31T14:57:36;100135.46;;;12.07;100.00
36972;BME280;40554;52.122;20.678;2022-12-31T14:59:55;100121.23;;;11.97;100.00
36972;BME280;40554;52.122;20.678;2022-12-31T15:02:28;100136.69;;;12.09;100.00
36972;BME280;40554;52.122;20.678;2022-12-31T15:04:46;100137.03;;;12.10;100.00
36972;BME280;40554;52.122;20.678;2022-12-31T15:07:52;100136.55;;;12.10;100.00
36972;BME280;40554;52.122;20.678;2022-12-31T15:09:51;100136.69;;;12.09;100.00
36972;BME280;40554;52.122;20.678;2022-12-31T15:15:09;100138.75;;;12.05;100.00
36972;BME280;40554;52.122;20.678;2022-12-31T15:20:42;100133.78;;;12.06;100.00
36972;BME280;40554;52.122;20.678;2022-12-31T15:22:55;100139.83;;;12.08;100.00
36972;BME280;40554;52.122;20.678;2022-12-31T15:25:25;100150.81;;;12.09;100.00
36972;BME280;40554;52.122;20.678;2022-12-31T15:27:47;100141.02;;;12.10;100.00
36972;BME280;40554;52.122;20.678;2022-12-31T15:30:05;100147.17;;;12.10;100.00
36972;BME280;40554;52.122;20.678;2022-12-31T15:32:27;100135.95;;;12.12;100.00
36972;BME280;40554;52.122;20.678;2022-12-31T15:34:44;100129.93;;;12.16;100.00
36972;BME280;40554;52.122;20.678;2022-12-31T15:37:03;100129.93;;;12.16;100.00
36972;BME280;40554;52.122;20.678;2022-12-31T15:41:52;100142.00;;;12.20;100.00
36972;BME280;40554;52.122;20.678;2022-12-31T15:44:28;100136.57;;;12.22;100.00
36972;BME280;40554;52.122;20.678;2022-12-31T15:46:50;100137.77;;;12.23;100.00
36972;BME280;40554;52.122;20.678;2022-12-31T15:49:12;100134.50;;;12.25;100.00
36972;BME280;40554;52.122;20.678;2022-12-31T15:52:01;100134.37;;;12.27;100.00
36972;BME280;40554;52.122;20.678;2022-12-31T15:54:26;100133.77;;;12.29;100.00
36972;BME280;40554;52.122;20.678;2022-12-31T15:56:47;100131.00;;;12.30;100.00
36972;BME280;40554;52.122;20.678;2022-12-31T15:59:09;100135.72;;;12.32;100.00
36972;BME280;40554;52.122;20.678;2022-12-31T16:01:31;100139.57;;;12.34;100.00
36972;BME280;40554;52.122;20.678;2022-12-31T16:03:58;100141.63;;;12.36;100.00
36972;BME280;40554;52.122;20.678;2022-12-31T16:06:24;100142.71;;;12.39;100.00
36972;BME280;40554;52.122;20.678;2022-12-31T16:08:45;100131.59;;;12.39;100.00
36972;BME280;40554;52.122;20.678;2022-12-31T16:11:05;100134.84;;;12.43;100.00
36972;BME280;40554;52.122;20.678;2022-12-31T16:13:25;100130.62;;;12.46;100.00
36972;BME280;40554;52.122;20.678;2022-12-31T16:15:42;100138.61;;;12.46;100.00
36972;BME280;40554;52.122;20.678;2022-12-31T16:18:08;100146.83;;;12.49;100.00
36972;BME280;40554;52.122;20.678;2022-12-31T16:20:30;100149.84;;;12.50;100.00